Terminal Aerodrome Forecast
Issued by NWS Billings, MT

Home | Current Version | Previous Version | Text Only | Print | Product List | Glossary On
Versions: 1 2 3 4 5 6 7 8 9 10 11 12 13 14 15 16 17 18 19 20 21 22 23 24 25
000
FTUS45 KBYZ 012339
TAFSHR
TAF
KSHR 012339Z 0200/0224 22010KT P6SM VCTS FEW090CB BKN110
      TEMPO 0200/0201 -SHRA BKN080
     FM020200 VRB04KT P6SM SCT120=

USA.gov is the U.S. government's official web portal to all federal, state and local government web resources and services.